Welcome to Des Moines Iowa Weather. I am an independent private personal weather station on the Northwest Side of Des Moines, Iowa. Just East of Windsor Heights and just West of Glendale . This site is also mobile friendly.

There are no active watches, warnings or advisories


Visit our other weather sites:

Historical Data

Weather Station Setup



Weather Underground History page Text

Daily Summary for September 17, 2017 Units:  English    Metric   Both
« Previous Day
Next Day »
Daily Weekly Monthly Yearly Custom
  High: Low: Average:
Temperature: 70.6 °F 55.3 °F 62.7 °F
Dew Point: 63.5 °F 50.5 °F 54.7 °F
Humidity: 96 % 49 % 77 %
Wind Speed: 5.0 mph -999.9 mph -1.9 mph
Wind Gust: 12.0 mph - -
Wind:- -
Pressure: 30.15 in 29.95 in -
Precipitation: 0.90 in    
Historical Graphs
 
 
Tabular Data for September 17, 2017
Time Temperature Dew Point Pressure Wind Wind Speed Wind Gust Humidity Rainfall Rate (Hourly)
00:00 66.5 °F 63.5 °F 29.95 in North 1.0 mph 8.0 mph 90 % 0.00 in
00:05 66.5 °F 63.5 °F 29.95 in North 1.0 mph 8.0 mph 90 % 0.00 in
00:10 65.9 °F 63.2 °F 29.96 in North 1.0 mph 10.0 mph 91 % 0.00 in
00:11 65.1 °F 63.0 °F 29.96 in NE 1.0 mph 12.0 mph 91 % 0.00 in
00:15 65.9 °F 63.2 °F 29.96 in North 1.0 mph 10.0 mph 91 % 0.00 in
00:20 65.9 °F 63.2 °F 29.96 in North 1.0 mph 10.0 mph 91 % 0.00 in
00:26 64.3 °F 62.0 °F 29.98 in Calm   9.0 mph 91 % 0.01 in
00:30 65.3 °F 62.6 °F 29.97 in North 3.0 mph 12.0 mph 91 % 0.00 in
00:35 65.3 °F 62.6 °F 29.97 in North 3.0 mph 12.0 mph 91 % 0.00 in
00:40 64.5 °F 61.8 °F 29.98 in North 2.0 mph 9.0 mph 91 % 0.15 in
00:41 63.7 °F 61.0 °F 30.00 in North 3.0 mph 12.0 mph 92 % 0.14 in
00:45 64.5 °F 61.8 °F 29.98 in North 2.0 mph 9.0 mph 91 % 0.15 in
00:50 64.5 °F 61.8 °F 29.98 in North 2.0 mph 9.0 mph 91 % 0.15 in
00:55 64.5 °F 61.8 °F 29.98 in North 2.0 mph 9.0 mph 91 % 0.15 in
00:56 62.9 °F 61.0 °F 29.97 in North 4.0 mph 11.0 mph 93 % 0.28 in
01:00 63.9 °F 61.5 °F 29.99 in North 2.0 mph 12.0 mph 92 % 1.72 in
01:05 63.9 °F 61.5 °F 29.99 in North 2.0 mph 12.0 mph 92 % 1.72 in
01:10 63.9 °F 61.5 °F 29.99 in North 2.0 mph 12.0 mph 92 % 1.72 in
01:15 63.1 °F 61.0 °F 29.96 in North 3.0 mph 11.0 mph 93 % 0.94 in
01:20 63.1 °F 61.0 °F 29.96 in North 3.0 mph 11.0 mph 93 % 0.94 in
01:25 63.1 °F 61.0 °F 29.96 in North 3.0 mph 11.0 mph 93 % 0.94 in
01:26 62.4 °F 61.0 °F 29.99 in Calm   4.0 mph 94 % 0.60 in
01:30 62.5 °F 60.8 °F 30.00 in North 2.0 mph 8.0 mph 94 % 3.87 in
01:35 62.5 °F 60.8 °F 30.00 in North 2.0 mph 8.0 mph 94 % 3.87 in
01:40 62.4 °F 60.6 °F 29.99 in North 1.0 mph 8.0 mph 94 % 2.50 in
01:41 62.3 °F 61.0 °F 29.99 in Calm     94 % 0.55 in
01:45 62.4 °F 60.6 °F 29.99 in North 1.0 mph 8.0 mph 94 % 2.50 in
01:50 62.4 °F 60.6 °F 29.99 in North 1.0 mph 8.0 mph 94 % 2.50 in
01:55 62.3 °F 60.5 °F 29.99 in Calm   1.0 mph 94 % 0.43 in
01:56 62.3 °F 61.0 °F 29.95 in North 1.0 mph 1.0 mph 95 % 0.47 in
02:00 62.3 °F 60.5 °F 29.99 in Calm   1.0 mph 94 % 0.43 in
02:05 62.3 °F 60.5 °F 29.99 in Calm   1.0 mph 94 % 0.43 in
02:10 62.3 °F 60.8 °F 29.96 in Calm   1.0 mph 95 % 0.28 in
02:11 62.3 °F 61.0 °F 29.98 in Calm   2.0 mph 95 % 0.39 in
02:15 62.3 °F 60.8 °F 29.96 in Calm   1.0 mph 95 % 0.28 in
02:20 62.3 °F 60.8 °F 29.96 in Calm   1.0 mph 95 % 0.28 in
02:25 62.3 °F 60.8 °F 29.98 in Calm   2.0 mph 95 % 0.22 in
02:26 62.3 °F 61.0 °F 30.00 in Calm     95 % 0.21 in
02:30 62.3 °F 60.8 °F 29.98 in Calm   2.0 mph 95 % 0.22 in
02:35 62.3 °F 60.8 °F 29.98 in Calm   2.0 mph 95 % 0.22 in
02:40 62.3 °F 60.8 °F 29.98 in Calm   2.0 mph 95 % 0.22 in
02:41 62.4 °F 61.0 °F 30.00 in Calm     95 % 0.15 in
02:45 62.3 °F 60.8 °F 30.00 in Calm   1.0 mph 95 % 0.23 in
02:50 62.3 °F 60.8 °F 30.00 in Calm   1.0 mph 95 % 0.23 in
02:55 62.3 °F 60.8 °F 30.00 in Calm   1.0 mph 95 % 0.23 in
02:56 62.4 °F 61.0 °F 30.01 in Calm   5.0 mph 95 % 0.14 in
03:00 62.3 °F 60.8 °F 30.00 in Calm     95 % 0.20 in
03:05 62.3 °F 60.8 °F 30.00 in Calm     95 % 0.20 in
03:10 62.3 °F 60.8 °F 30.00 in Calm     95 % 0.20 in
03:11 62.2 °F 61.0 °F 30.01 in North 2.0 mph 4.0 mph 95 % 0.10 in
03:15 62.5 °F 61.0 °F 30.01 in NNE 1.0 mph 5.0 mph 95 % 0.09 in
03:20 62.5 °F 61.0 °F 30.01 in NNE 1.0 mph 5.0 mph 95 % 0.09 in
03:25 62.3 °F 60.8 °F 30.01 in Calm   4.0 mph 95 % 0.00 in
03:26 61.9 °F 61.0 °F 30.02 in North 1.0 mph 5.0 mph 95 % 0.06 in
03:30 62.3 °F 60.8 °F 30.01 in Calm   4.0 mph 95 % 0.00 in
03:35 62.3 °F 60.8 °F 30.01 in Calm   4.0 mph 95 % 0.00 in
03:40 62.0 °F 60.5 °F 30.02 in North 1.0 mph 5.0 mph 95 % 0.00 in
03:41 61.5 °F 60.0 °F 30.03 in Calm   3.0 mph 95 % 0.03 in
03:45 62.0 °F 60.5 °F 30.02 in North 1.0 mph 5.0 mph 95 % 0.00 in
03:50 62.0 °F 60.5 °F 30.02 in North 1.0 mph 5.0 mph 95 % 0.00 in
03:55 61.6 °F 60.2 °F 30.03 in Calm   2.0 mph 95 % 0.00 in
03:56 61.4 °F 60.0 °F 30.03 in Calm   2.0 mph 95 % 0.00 in
04:00 61.6 °F 60.2 °F 30.03 in Calm   2.0 mph 95 % 0.00 in
04:05 61.6 °F 60.2 °F 30.03 in Calm   2.0 mph 95 % 0.00 in
04:10 61.6 °F 60.2 °F 30.03 in Calm   2.0 mph 95 % 0.00 in
04:11 61.3 °F 60.0 °F 30.04 in Calm   4.0 mph 96 % 0.00 in
04:15 61.4 °F 60.0 °F 30.03 in Calm   2.0 mph 95 % 0.00 in
04:20 61.4 °F 60.0 °F 30.03 in Calm   2.0 mph 95 % 0.00 in
04:25 61.4 °F 60.0 °F 30.03 in Calm   2.0 mph 95 % 0.00 in
04:26 60.9 °F 60.0 °F 30.05 in North 1.0 mph 6.0 mph 95 % 0.00 in
04:30 61.4 °F 60.2 °F 30.04 in North 1.0 mph 4.0 mph 96 % 0.00 in
04:35 61.4 °F 60.2 °F 30.04 in North 1.0 mph 4.0 mph 96 % 0.00 in
04:40 61.4 °F 60.2 °F 30.04 in North 1.0 mph 4.0 mph 96 % 0.00 in
04:41 60.5 °F 59.0 °F 30.06 in North 2.0 mph 3.0 mph 96 % 0.00 in
04:45 61.1 °F 59.7 °F 30.05 in North 1.0 mph 6.0 mph 95 % 0.00 in
04:50 61.1 °F 59.7 °F 30.05 in North 1.0 mph 6.0 mph 95 % 0.00 in
04:55 61.1 °F 59.7 °F 30.05 in North 1.0 mph 6.0 mph 95 % 0.00 in
04:56 59.6 °F 58.0 °F 30.07 in North 1.0 mph 6.0 mph 95 % 0.00 in
05:00 60.6 °F 59.2 °F 30.07 in Calm   4.0 mph 95 % 0.00 in
05:10 59.9 °F 58.5 °F 30.07 in North 1.0 mph 6.0 mph 95 % 0.00 in
05:12 59.0 °F 58.0 °F 30.07 in Calm   4.0 mph 95 % 0.00 in
05:15 59.9 °F 58.5 °F 30.07 in North 1.0 mph 6.0 mph 95 % 0.00 in
05:20 59.9 °F 58.5 °F 30.07 in North 1.0 mph 6.0 mph 95 % 0.00 in
05:25 59.1 °F 57.7 °F 30.08 in North 1.0 mph 5.0 mph 95 % 0.00 in
05:27 58.9 °F 58.0 °F 30.08 in North 1.0 mph 4.0 mph 95 % 0.00 in
05:30 59.1 °F 57.7 °F 30.08 in North 1.0 mph 5.0 mph 95 % 0.00 in
05:35 59.1 °F 57.7 °F 30.08 in North 1.0 mph 5.0 mph 95 % 0.00 in
05:40 58.9 °F 57.5 °F 30.08 in North 1.0 mph 5.0 mph 95 % 0.00 in
05:42 58.6 °F 57.0 °F 30.08 in ENE 3.0 mph 5.0 mph 95 % 0.00 in
05:45 58.9 °F 57.5 °F 30.08 in North 1.0 mph 5.0 mph 95 % 0.00 in
05:50 58.9 °F 57.5 °F 30.08 in North 1.0 mph 5.0 mph 95 % 0.00 in
05:55 58.9 °F 57.5 °F 30.08 in North 1.0 mph 5.0 mph 95 % 0.00 in
05:57 58.4 °F 57.0 °F 30.08 in North 5.0 mph 6.0 mph 95 % 0.00 in
06:00 58.7 °F 57.3 °F 30.08 in NE 1.0 mph 5.0 mph 95 % 0.00 in
06:05 58.7 °F 57.3 °F 30.08 in NE 1.0 mph 5.0 mph 95 % 0.00 in
06:10 58.7 °F 57.3 °F 30.08 in NE 1.0 mph 5.0 mph 95 % 0.00 in
06:12 58.2 °F 57.0 °F 30.07 in ENE 2.0 mph 6.0 mph 95 % 0.00 in
06:15 58.5 °F 57.1 °F 30.08 in North 1.0 mph 6.0 mph 95 % 0.00 in
06:20 58.5 °F 57.1 °F 30.08 in North 1.0 mph 6.0 mph 95 % 0.00 in
06:25 58.5 °F 57.1 °F 30.08 in North 1.0 mph 6.0 mph 95 % 0.00 in
06:30 58.3 °F 56.9 °F 30.08 in North 2.0 mph 7.0 mph 95 % 0.00 in
06:35 58.3 °F 56.9 °F 30.08 in North 2.0 mph 7.0 mph 95 % 0.00 in
06:40 58.2 °F 56.8 °F 30.10 in North 2.0 mph 8.0 mph 95 % 0.00 in
06:42 57.9 °F 56.0 °F 30.10 in Calm   9.0 mph 94 % 0.00 in
06:45 58.2 °F 56.8 °F 30.10 in North 2.0 mph 8.0 mph 95 % 0.00 in
06:50 58.2 °F 56.8 °F 30.10 in North 2.0 mph 8.0 mph 95 % 0.00 in
06:55 58.1 °F 56.4 °F 30.10 in North 2.0 mph 10.0 mph 94 % 0.00 in
06:57 56.4 °F 54.0 °F 30.10 in North 3.0 mph 9.0 mph 92 % 0.00 in
07:00 58.1 °F 56.4 °F 30.10 in North 2.0 mph 10.0 mph 94 % 0.00 in
07:05 58.1 °F 56.4 °F 30.10 in North 2.0 mph 10.0 mph 94 % 0.00 in
07:10 56.7 °F 54.4 °F 30.10 in North 2.0 mph 9.0 mph 92 % 0.00 in
07:12 55.7 °F 53.0 °F 30.11 in ENE 1.0 mph 6.0 mph 90 % 0.00 in
07:15 56.7 °F 54.4 °F 30.10 in North 2.0 mph 9.0 mph 92 % 0.00 in
07:20 56.7 °F 54.4 °F 30.10 in North 2.0 mph 9.0 mph 92 % 0.00 in
07:25 55.9 °F 52.7 °F 30.11 in North 2.0 mph 6.0 mph 89 % 0.00 in
07:27 55.6 °F 53.0 °F 30.11 in North 1.0 mph 4.0 mph 89 % 0.00 in
07:30 55.9 °F 52.7 °F 30.11 in North 2.0 mph 6.0 mph 89 % 0.00 in
07:35 55.9 °F 52.7 °F 30.11 in North 2.0 mph 6.0 mph 89 % 0.00 in
07:40 55.9 °F 52.7 °F 30.11 in North 2.0 mph 6.0 mph 89 % 0.00 in
07:42 55.4 °F 52.0 °F 30.11 in North 3.0 mph 6.0 mph 89 % 0.00 in
07:45 55.6 °F 52.4 °F 30.11 in North 1.0 mph 5.0 mph 89 % 0.00 in
07:50 55.6 °F 52.4 °F 30.11 in North 1.0 mph 5.0 mph 89 % 0.00 in
07:55 55.6 °F 52.4 °F 30.11 in North 1.0 mph 5.0 mph 89 % 0.00 in
07:57 55.3 °F 52.0 °F 30.11 in Calm   5.0 mph 89 % 0.00 in
08:00 55.5 °F 52.3 °F 30.11 in North 1.0 mph 6.0 mph 89 % 0.00 in
08:05 55.5 °F 52.3 °F 30.11 in North 1.0 mph 6.0 mph 89 % 0.00 in
08:10 55.5 °F 52.3 °F 30.11 in North 1.0 mph 6.0 mph 89 % 0.00 in
08:12 55.3 °F 52.0 °F 30.12 in North 1.0 mph 2.0 mph 89 % 0.00 in
08:15 55.3 °F 52.1 °F 30.11 in North 1.0 mph 5.0 mph 89 % 0.00 in
08:20 55.3 °F 52.1 °F 30.11 in North 1.0 mph 5.0 mph 89 % 0.00 in
08:25 55.3 °F 52.1 °F 30.12 in Calm   3.0 mph 89 % 0.00 in
08:27 55.4 °F 52.0 °F 30.13 in North 1.0 mph 8.0 mph 89 % 0.00 in
08:30 55.3 °F 52.1 °F 30.12 in Calm   3.0 mph 89 % 0.00 in
08:35 55.3 °F 52.1 °F 30.12 in Calm   3.0 mph 89 % 0.00 in
08:40 55.4 °F 52.2 °F 30.13 in North 1.0 mph 8.0 mph 89 % 0.00 in
08:42 55.5 °F 52.0 °F 30.13 in North 2.0 mph 6.0 mph 87 % 0.00 in
08:45 55.4 °F 52.2 °F 30.13 in North 1.0 mph 8.0 mph 89 % 0.00 in
08:55 55.4 °F 51.6 °F 30.13 in North 1.0 mph 8.0 mph 87 % 0.00 in
08:57 55.7 °F 52.0 °F 30.14 in Calm   6.0 mph 86 % 0.00 in
09:00 55.4 °F 51.6 °F 30.13 in North 1.0 mph 8.0 mph 87 % 0.00 in
09:05 55.4 °F 51.6 °F 30.13 in North 1.0 mph 8.0 mph 87 % 0.00 in
09:10 55.4 °F 51.6 °F 30.13 in North 1.0 mph 8.0 mph 87 % 0.00 in
09:12 56.1 °F 52.0 °F 30.14 in NNE 1.0 mph 8.0 mph 85 % 0.00 in
09:15 55.7 °F 51.6 °F 30.14 in North 1.0 mph 7.0 mph 86 % 0.00 in
09:20 55.7 °F 51.6 °F 30.14 in North 1.0 mph 7.0 mph 86 % 0.00 in
09:25 55.7 °F 51.6 °F 30.14 in North 1.0 mph 7.0 mph 86 % 0.00 in
09:27 56.5 °F 52.0 °F 30.14 in Calm   4.0 mph 85 % 0.00 in
09:30 56.0 °F 51.5 °F 30.15 in North 1.0 mph 8.0 mph 85 % 0.00 in
09:35 56.0 °F 51.5 °F 30.15 in North 1.0 mph 8.0 mph 85 % 0.00 in
09:40 56.0 °F 51.5 °F 30.15 in North 1.0 mph 8.0 mph 85 % 0.00 in
09:42 56.8 °F 52.0 °F 30.14 in ENE 3.0 mph 5.0 mph 84 % 0.00 in
09:45 56.3 °F 51.8 °F 30.14 in North 1.0 mph 5.0 mph 85 % 0.00 in
09:50 56.3 °F 51.8 °F 30.14 in North 1.0 mph 5.0 mph 85 % 0.00 in
09:55 56.3 °F 51.8 °F 30.14 in North 1.0 mph 5.0 mph 85 % 0.00 in
09:57 57.3 °F 52.0 °F 30.14 in Calm   4.0 mph 81 % 0.00 in
10:00 56.7 °F 51.6 °F 30.14 in North 1.0 mph 6.0 mph 83 % 0.00 in
10:05 56.7 °F 51.6 °F 30.14 in North 1.0 mph 6.0 mph 83 % 0.00 in
10:10 57.1 °F 51.3 °F 30.14 in ENE 1.0 mph 7.0 mph 81 % 0.00 in
10:12 58.0 °F 52.0 °F 30.14 in ENE 4.0 mph 9.0 mph 79 % 0.00 in
10:15 57.1 °F 51.3 °F 30.14 in ENE 1.0 mph 7.0 mph 81 % 0.00 in
10:20 57.1 °F 51.3 °F 30.14 in ENE 1.0 mph 7.0 mph 81 % 0.00 in
10:25 57.7 °F 50.9 °F 30.14 in North 2.0 mph 9.0 mph 78 % 0.00 in
10:27 58.4 °F 52.0 °F 30.14 in Calm   8.0 mph 78 % 0.00 in
10:30 57.7 °F 50.9 °F 30.14 in North 2.0 mph 9.0 mph 78 % 0.00 in
10:35 57.7 °F 50.9 °F 30.14 in North 2.0 mph 9.0 mph 78 % 0.00 in
10:40 58.2 °F 51.4 °F 30.14 in North 2.0 mph 8.0 mph 78 % 0.00 in
10:42 59.0 °F 52.0 °F 30.14 in Calm   10.0 mph 77 % 0.00 in
10:45 58.2 °F 51.4 °F 30.14 in North 2.0 mph 8.0 mph 78 % 0.00 in
10:50 58.2 °F 51.4 °F 30.14 in North 2.0 mph 8.0 mph 78 % 0.00 in
10:55 58.2 °F 51.4 °F 30.14 in North 2.0 mph 8.0 mph 78 % 0.00 in
10:58 59.5 °F 52.0 °F 30.14 in East 2.0 mph 6.0 mph 75 % 0.00 in
11:00 58.8 °F 51.6 °F 30.14 in North 2.0 mph 10.0 mph 77 % 0.00 in
11:05 58.8 °F 51.6 °F 30.14 in North 2.0 mph 10.0 mph 77 % 0.00 in
11:10 58.8 °F 51.6 °F 30.14 in North 2.0 mph 10.0 mph 77 % 0.00 in
11:12 60.4 °F 52.0 °F 30.14 in NE 3.0 mph 10.0 mph 73 % 0.00 in
11:15 59.4 °F 51.5 °F 30.14 in North 3.0 mph 8.0 mph 75 % 0.00 in
11:20 59.4 °F 51.5 °F 30.14 in North 3.0 mph 8.0 mph 75 % 0.00 in
11:25 59.4 °F 51.5 °F 30.14 in North 3.0 mph 8.0 mph 75 % 0.00 in
11:28 61.4 °F 52.0 °F 30.15 in NNE 1.0 mph 7.0 mph 71 % 0.00 in
11:35 60.0 °F 51.3 °F 30.14 in North 3.0 mph 10.0 mph 73 % 0.00 in
11:40 61.1 °F 51.2 °F 30.15 in North 2.0 mph 7.0 mph 70 % 0.00 in
11:43 61.9 °F 52.0 °F 30.14 in East 3.0 mph 6.0 mph 69 % 0.00 in
11:45 61.1 °F 51.2 °F 30.15 in North 2.0 mph 7.0 mph 70 % 0.00 in
11:50 61.1 °F 51.2 °F 30.15 in North 2.0 mph 7.0 mph 70 % 0.00 in
11:55 61.1 °F 51.2 °F 30.15 in North 2.0 mph 7.0 mph 70 % 0.00 in
11:58 62.7 °F 51.0 °F 30.15 in North 2.0 mph 6.0 mph 66 % 0.00 in
12:00 61.7 °F 51.4 °F 30.15 in ENE 2.0 mph 10.0 mph 69 % 0.00 in
12:05 61.7 °F 51.4 °F 30.15 in ENE 2.0 mph 10.0 mph 69 % 0.00 in
12:10 61.7 °F 51.4 °F 30.15 in ENE 2.0 mph 10.0 mph 69 % 0.00 in
12:13 64.0 °F 51.0 °F 30.14 in ENE 2.0 mph 5.0 mph 64 % 0.00 in
12:15 62.4 °F 50.9 °F 30.15 in North 2.0 mph 8.0 mph 66 % 0.00 in
12:20 62.4 °F 50.9 °F 30.15 in North 2.0 mph 8.0 mph 66 % 0.00 in
12:25 63.5 °F 51.5 °F 30.14 in North 1.0 mph 5.0 mph 65 % 0.00 in
12:28 64.4 °F 52.0 °F 30.14 in North 1.0 mph 8.0 mph 65 % 0.00 in
12:30 63.5 °F 51.5 °F 30.14 in North 1.0 mph 5.0 mph 65 % 0.00 in
12:35 63.5 °F 51.5 °F 30.14 in North 1.0 mph 5.0 mph 65 % 0.00 in
12:40 64.3 °F 51.8 °F 30.14 in North 1.0 mph 8.0 mph 64 % 0.00 in
12:43 64.9 °F 52.0 °F 30.14 in North 4.0 mph 10.0 mph 64 % 0.00 in
12:45 64.3 °F 51.8 °F 30.14 in North 1.0 mph 8.0 mph 64 % 0.00 in
12:50 64.3 °F 51.8 °F 30.14 in North 1.0 mph 8.0 mph 64 % 0.00 in
12:55 64.8 °F 52.3 °F 30.14 in North 2.0 mph 10.0 mph 64 % 0.00 in
12:58 65.8 °F 54.0 °F 30.13 in ENE 1.0 mph 1.0 mph 66 % 0.00 in
13:00 64.8 °F 52.3 °F 30.14 in North 2.0 mph 10.0 mph 64 % 0.00 in
13:05 64.8 °F 52.3 °F 30.14 in North 2.0 mph 10.0 mph 64 % 0.00 in
13:10 64.8 °F 52.3 °F 30.14 in North 2.0 mph 10.0 mph 64 % 0.00 in
13:13 65.9 °F 52.0 °F 30.13 in ENE 4.0 mph 6.0 mph 61 % 0.00 in
13:15 65.1 °F 52.2 °F 30.13 in ENE 1.0 mph 4.0 mph 63 % 0.00 in
13:20 65.1 °F 52.2 °F 30.13 in ENE 1.0 mph 4.0 mph 63 % 0.00 in
13:25 65.1 °F 52.2 °F 30.13 in ENE 1.0 mph 4.0 mph 63 % 0.00 in
13:28 66.4 °F 53.0 °F 30.13 in Calm   3.0 mph 62 % 0.00 in
13:30 65.8 °F 51.5 °F 30.13 in North 2.0 mph 5.0 mph 60 % 0.00 in
13:35 65.8 °F 51.5 °F 30.13 in North 2.0 mph 5.0 mph 60 % 0.00 in
13:40 65.8 °F 51.5 °F 30.13 in North 2.0 mph 5.0 mph 60 % 0.00 in
13:43 67.4 °F 52.0 °F 30.13 in NE 2.0 mph 4.0 mph 58 % 0.00 in
13:45 65.9 °F 52.9 °F 30.13 in Calm   3.0 mph 63 % 0.00 in
13:50 65.9 °F 52.9 °F 30.13 in Calm   3.0 mph 63 % 0.00 in
13:55 65.9 °F 52.9 °F 30.13 in Calm   3.0 mph 63 % 0.00 in
13:58 67.6 °F 52.0 °F 30.12 in ENE 1.0 mph 5.0 mph 57 % 0.00 in
14:00 67.4 °F 52.1 °F 30.12 in ENE 1.0 mph 4.0 mph 58 % 0.00 in
14:05 67.4 °F 52.1 °F 30.12 in ENE 1.0 mph 4.0 mph 58 % 0.00 in
14:10 67.4 °F 52.1 °F 30.13 in North 1.0 mph 5.0 mph 58 % 0.00 in
14:13 68.5 °F 52.0 °F 30.12 in Calm   4.0 mph 55 % 0.00 in
14:15 67.4 °F 52.1 °F 30.13 in North 1.0 mph 5.0 mph 58 % 0.00 in
14:20 67.4 °F 52.1 °F 30.13 in North 1.0 mph 5.0 mph 58 % 0.00 in
14:25 68.1 °F 53.7 °F 30.12 in North 1.0 mph 5.0 mph 60 % 0.00 in
14:28 69.4 °F 53.0 °F 30.11 in NE 2.0 mph 4.0 mph 56 % 0.00 in
14:30 68.1 °F 53.7 °F 30.12 in North 1.0 mph 5.0 mph 60 % 0.00 in
14:35 68.1 °F 53.7 °F 30.12 in North 1.0 mph 5.0 mph 60 % 0.00 in
14:40 69.5 °F 53.6 °F 30.12 in NE 1.0 mph 4.0 mph 57 % 0.00 in
14:43 68.7 °F 52.0 °F 30.11 in Calm   4.0 mph 56 % 0.00 in
14:45 69.5 °F 53.6 °F 30.12 in NE 1.0 mph 4.0 mph 57 % 0.00 in
14:50 69.5 °F 53.6 °F 30.12 in NE 1.0 mph 4.0 mph 57 % 0.00 in
14:55 69.5 °F 53.6 °F 30.12 in NE 1.0 mph 4.0 mph 57 % 0.00 in
14:58 70.1 °F 52.0 °F 30.11 in North -999.9 mph -999.0 mph 52 % 0.00 in
15:00 68.6 °F 52.3 °F 30.11 in Calm   4.0 mph 56 % 0.00 in
15:05 68.6 °F 52.3 °F 30.11 in Calm   4.0 mph 56 % 0.00 in
15:10 68.6 °F 52.3 °F 30.11 in Calm   4.0 mph 56 % 0.00 in
15:13 69.4 °F 51.0 °F 30.11 in Calm   1.0 mph 53 % 0.01 in
15:15 69.4 °F 51.0 °F 30.11 in NE 1.0 mph 5.0 mph 52 % 0.00 in
15:20 69.4 °F 51.0 °F 30.11 in NE 1.0 mph 5.0 mph 52 % 0.00 in
15:25 69.4 °F 51.0 °F 30.11 in NE 1.0 mph 5.0 mph 52 % 0.00 in
15:28 69.4 °F 52.0 °F 30.11 in Calm     54 % 0.01 in
15:30 69.5 °F 52.6 °F 30.11 in Calm   3.0 mph 55 % 0.00 in
15:35 69.5 °F 51.6 °F 30.11 in Calm   2.0 mph 53 % 0.00 in
15:40 69.2 °F 51.8 °F 30.11 in Calm   1.0 mph 54 % 0.00 in
15:43 69.1 °F 51.0 °F 30.11 in Calm   3.0 mph 52 % 0.01 in
15:45 69.2 °F 51.3 °F 30.11 in Calm   3.0 mph 53 % 0.00 in
15:50 69.6 °F 51.7 °F 30.11 in NNE 1.0 mph 3.0 mph 53 % 0.00 in
15:55 69.2 °F 51.3 °F 30.10 in NNE 1.0 mph   53 % 0.00 in
15:58 68.9 °F 51.0 °F 30.10 in Calm   3.0 mph 54 % 0.01 in
16:00 69.0 °F 52.1 °F 30.10 in Calm   2.0 mph 55 % 0.00 in
16:05 69.6 °F 51.2 °F 30.10 in NNE 1.0 mph 4.0 mph 52 % 0.00 in
16:10 69.4 °F 51.0 °F 30.09 in North 1.0 mph 5.0 mph 52 % 0.00 in
16:13 69.3 °F 52.0 °F 30.09 in Calm   5.0 mph 54 % 0.00 in
16:15 69.4 °F 52.0 °F 30.09 in North 1.0 mph   54 % 0.00 in
16:20 69.5 °F 51.6 °F 30.09 in Calm     53 % 0.00 in
16:28 69.9 °F 51.0 °F 30.09 in NE 2.0 mph 5.0 mph 52 % 0.00 in
16:30 70.0 °F 51.0 °F 30.09 in NNE 1.0 mph 4.0 mph 51 % 0.00 in
16:35 69.9 °F 51.5 °F 30.09 in NE 1.0 mph   52 % 0.00 in
16:40 70.1 °F 50.6 °F 30.09 in NE 1.0 mph 2.0 mph 50 % 0.00 in
16:45 70.5 °F 52.5 °F 30.09 in NE 1.0 mph 1.0 mph 53 % 0.00 in
16:50 70.3 °F 51.3 °F 30.09 in East 1.0 mph 1.0 mph 51 % 0.00 in
16:55 70.3 °F 51.3 °F 30.08 in Calm   1.0 mph 51 % 0.00 in
16:58 70.5 °F 51.0 °F 30.08 in Calm   3.0 mph 51 % 0.00 in
17:00 70.5 °F 51.5 °F 30.08 in Calm   2.0 mph 51 % 0.00 in
17:05 70.6 °F 50.5 °F 30.08 in NE 1.0 mph 2.0 mph 49 % 0.00 in
17:10 70.5 °F 51.0 °F 30.08 in NNE 1.0 mph   50 % 0.00 in
17:13 70.5 °F 51.0 °F 30.08 in Calm   1.0 mph 50 % 0.00 in
17:15 70.5 °F 51.0 °F 30.08 in Calm     50 % 0.00 in
17:20 70.5 °F 51.5 °F 30.08 in Calm     51 % 0.00 in
17:25 70.5 °F 53.0 °F 30.08 in Calm     54 % 0.00 in
17:28 70.6 °F 52.0 °F 30.07 in Calm   1.0 mph 53 % 0.00 in
17:30 70.5 °F 51.0 °F 30.08 in North 1.0 mph 3.0 mph 50 % 0.00 in
17:35 70.5 °F 51.0 °F 30.08 in North 1.0 mph 3.0 mph 50 % 0.00 in
17:40 70.5 °F 51.0 °F 30.08 in North 1.0 mph 3.0 mph 50 % 0.00 in
17:43 70.6 °F 52.0 °F 30.07 in Calm     52 % 0.00 in
17:45 70.5 °F 52.0 °F 30.08 in Calm   1.0 mph 52 % 0.00 in
17:50 70.5 °F 52.0 °F 30.08 in Calm   1.0 mph 52 % 0.00 in
17:55 70.5 °F 52.0 °F 30.08 in Calm   1.0 mph 52 % 0.00 in
17:58 70.5 °F 51.0 °F 30.07 in Calm     50 % 0.00 in
18:00 70.6 °F 50.5 °F 30.07 in Calm   3.0 mph 49 % 0.00 in
18:05 70.6 °F 50.5 °F 30.07 in Calm   3.0 mph 49 % 0.00 in
18:10 70.6 °F 50.5 °F 30.07 in Calm   3.0 mph 49 % 0.00 in
18:15 70.6 °F 51.0 °F 30.07 in Calm   2.0 mph 50 % 0.00 in
18:20 70.6 °F 51.0 °F 30.07 in Calm   2.0 mph 50 % 0.00 in
18:25 70.6 °F 51.0 °F 30.07 in Calm   2.0 mph 50 % 0.00 in
18:28 69.9 °F 52.0 °F 30.08 in Calm     53 % 0.00 in
18:30 70.4 °F 51.9 °F 30.07 in Calm     52 % 0.00 in
18:35 70.4 °F 51.9 °F 30.07 in Calm     52 % 0.00 in
18:40 70.4 °F 51.9 °F 30.07 in Calm     52 % 0.00 in
18:43 69.1 °F 53.0 °F 30.08 in Calm     56 % 0.00 in
18:45 70.1 °F 52.7 °F 30.08 in Calm   2.0 mph 54 % 0.00 in
18:50 70.1 °F 52.7 °F 30.08 in Calm   2.0 mph 54 % 0.00 in
18:55 70.1 °F 52.7 °F 30.08 in Calm   2.0 mph 54 % 0.00 in
18:58 68.2 °F 53.0 °F 30.08 in Calm     58 % 0.00 in
19:00 69.4 °F 53.0 °F 30.08 in Calm     56 % 0.00 in
19:05 69.4 °F 53.0 °F 30.08 in Calm     56 % 0.00 in
19:10 69.4 °F 53.0 °F 30.08 in Calm     56 % 0.00 in
19:13 67.3 °F 53.0 °F 30.08 in Calm     61 % 0.00 in
19:15 68.6 °F 53.7 °F 30.08 in Calm     59 % 0.00 in
19:20 68.6 °F 53.7 °F 30.08 in Calm     59 % 0.00 in
19:25 68.6 °F 53.7 °F 30.08 in Calm     59 % 0.00 in
19:28 66.4 °F 54.0 °F 30.08 in Calm     65 % 0.00 in
19:30 67.6 °F 53.7 °F 30.08 in Calm     61 % 0.00 in
19:35 67.6 °F 53.7 °F 30.08 in Calm     61 % 0.00 in
19:40 67.6 °F 53.7 °F 30.08 in Calm     61 % 0.00 in
19:43 65.6 °F 54.0 °F 30.08 in Calm     67 % 0.00 in
19:45 66.8 °F 54.6 °F 30.08 in Calm     65 % 0.00 in
19:50 66.8 °F 54.6 °F 30.08 in Calm     65 % 0.00 in
19:55 66.8 °F 54.6 °F 30.08 in Calm     65 % 0.00 in
19:58 65.0 °F 55.0 °F 30.07 in Calm     69 % 0.00 in
20:00 65.9 °F 54.6 °F 30.08 in Calm     67 % 0.00 in
20:05 65.9 °F 54.6 °F 30.08 in Calm     67 % 0.00 in
20:10 65.9 °F 54.6 °F 30.08 in Calm     67 % 0.00 in
20:13 64.2 °F 55.0 °F 30.08 in Calm     71 % 0.00 in
20:15 65.2 °F 55.2 °F 30.08 in Calm     70 % 0.00 in
20:20 65.2 °F 55.2 °F 30.08 in Calm     70 % 0.00 in
20:25 65.2 °F 55.2 °F 30.08 in Calm     70 % 0.00 in
20:28 63.3 °F 54.0 °F 30.09 in Calm     72 % 0.00 in
20:35 64.5 °F 54.9 °F 30.08 in Calm     71 % 0.00 in
20:40 64.5 °F 54.9 °F 30.08 in Calm     71 % 0.00 in
20:43 62.6 °F 54.0 °F 30.09 in Calm     74 % 0.00 in
20:45 63.6 °F 54.4 °F 30.09 in Calm     72 % 0.00 in
20:50 63.6 °F 54.4 °F 30.09 in Calm     72 % 0.00 in
20:55 63.6 °F 54.4 °F 30.09 in Calm     72 % 0.00 in
20:58 62.0 °F 54.0 °F 30.08 in Calm     76 % 0.00 in
21:00 62.9 °F 54.8 °F 30.09 in Calm     75 % 0.00 in
21:05 62.9 °F 54.8 °F 30.09 in Calm     75 % 0.00 in
21:10 62.9 °F 54.8 °F 30.09 in Calm     75 % 0.00 in
21:13 61.3 °F 54.0 °F 30.08 in Calm     77 % 0.00 in
21:15 62.2 °F 54.5 °F 30.08 in Calm     76 % 0.00 in
21:20 62.2 °F 54.5 °F 30.08 in Calm     76 % 0.00 in
21:25 62.2 °F 54.5 °F 30.08 in Calm     76 % 0.00 in
21:28 60.8 °F 54.0 °F 30.08 in Calm     79 % 0.00 in
21:30 61.6 °F 54.3 °F 30.08 in Calm     77 % 0.00 in
21:35 61.6 °F 54.3 °F 30.08 in Calm     77 % 0.00 in
21:40 61.6 °F 54.3 °F 30.08 in Calm     77 % 0.00 in
21:43 60.5 °F 54.0 °F 30.08 in Calm     80 % 0.00 in
21:45 61.0 °F 54.4 °F 30.08 in Calm     79 % 0.00 in
21:50 61.0 °F 54.4 °F 30.08 in Calm     79 % 0.00 in
21:55 61.0 °F 54.4 °F 30.08 in Calm     79 % 0.00 in
21:58 60.2 °F 54.0 °F 30.08 in Calm     81 % 0.00 in
22:00 60.6 °F 54.7 °F 30.08 in Calm     81 % 0.00 in
22:05 60.6 °F 54.7 °F 30.08 in Calm     81 % 0.00 in
22:10 60.6 °F 54.7 °F 30.08 in Calm     81 % 0.00 in
22:15 60.3 °F 54.5 °F 30.09 in Calm     81 % 0.00 in
22:18 59.8 °F 54.0 °F 30.08 in Calm     82 % 0.00 in
22:20 60.3 °F 54.5 °F 30.09 in Calm     81 % 0.00 in
22:25 60.3 °F 54.5 °F 30.09 in Calm     81 % 0.00 in
22:30 59.4 °F 54.0 °F 30.09 in Calm     82 % 0.00 in
22:35 60.0 °F 54.5 °F 30.08 in Calm     82 % 0.00 in
22:40 60.0 °F 54.5 °F 30.08 in Calm     82 % 0.00 in
22:43 59.0 °F 54.0 °F 30.09 in Calm     83 % 0.00 in
22:45 59.6 °F 54.1 °F 30.09 in Calm     82 % 0.00 in
22:50 59.6 °F 54.1 °F 30.09 in Calm     82 % 0.00 in
22:55 59.6 °F 54.1 °F 30.09 in Calm     82 % 0.00 in
22:58 58.6 °F 54.0 °F 30.09 in Calm     84 % 0.00 in
23:00 59.2 °F 54.0 °F 30.09 in Calm     83 % 0.00 in
23:05 59.2 °F 54.0 °F 30.09 in Calm     83 % 0.00 in
23:10 59.2 °F 54.0 °F 30.09 in Calm     83 % 0.00 in
23:13 58.3 °F 54.0 °F 30.08 in Calm     85 % 0.00 in
23:15 58.8 °F 54.0 °F 30.09 in Calm     84 % 0.00 in
23:20 58.8 °F 54.0 °F 30.09 in Calm     84 % 0.00 in
23:25 58.8 °F 54.0 °F 30.09 in Calm     84 % 0.00 in
23:28 58.0 °F 54.0 °F 30.08 in Calm     86 % 0.00 in
23:30 58.4 °F 53.9 °F 30.08 in Calm     85 % 0.00 in
23:35 58.4 °F 53.9 °F 30.08 in Calm     85 % 0.00 in
23:40 58.4 °F 53.9 °F 30.08 in Calm     85 % 0.00 in
23:43 57.7 °F 54.0 °F 30.08 in Calm     86 % 0.00 in
23:45 58.2 °F 54.0 °F 30.08 in Calm     86 % 0.00 in
23:50 58.2 °F 54.0 °F 30.08 in Calm     86 % 0.00 in
23:55 58.2 °F 54.0 °F 30.08 in Calm     86 % 0.00 in
23:58 57.5 °F 54.0 °F 30.08 in Calm     87 % 0.00 in
Des Moines Weather and Climate
Compliments of Weather Underground - 4.5 mb

Script developed by  Jim McMurry - jmcmurry@mwt.net Adapted for the template by  Wim van der Kuil - Leuven-Template.eu

You find our weather info also at:

Weather Underground

Equipment we use:

Weather-station
Davis VP2 Plus

Weather-program
Davis Weatherlink.Com

Weather-server
iMac (Retina 4K, 21.5-inch, Late 2015)

Provider
Hostmonster.com

Davis VP2 Plus

Davis Weatherlink.Com

iMac (Retina 4K, 21.5-inch, Late 2015)

Hostmonster.com